This is the latest recevied weather packets stored in our database for station/object LRCT. If no packets are shown the sender has not sent any weather packets the latest 10 day(s).
| Time | Temp. | Humidity | Pressure | Rain* | Wind** | Luminosity | Snow |
|---|---|---|---|---|---|---|---|
| 1788431637 | 25° C | 36% | 1020 hPa | - | - | - | - |
| 1788430738 | 25° C | 36% | 1020 hPa | - | - | - | - |
| 1788428936 | 23.89° C | 39% | 1020 hPa | - | - | - | - |
| 1788428037 | 23.89° C | 39% | 1020 hPa | - | - | - | - |
| 1788427155 | 23.89° C | 39% | 1020 hPa | - | - | - | - |
| 1788421735 | 20° C | 56% | 1021 hPa | - | - | - | - |
| 1788420837 | 20° C | 56% | 1021 hPa | - | - | - | - |
| 1788418137 | 16.11° C | 77% | 1021 hPa | - | - | - | - |
| 1788417237 | 16.11° C | 77% | 1021 hPa | - | - | - | - |
| 1788416337 | 16.11° C | 77% | 1021 hPa | - | - | - | - |
| 1788414542 | 12.78° C | 94% | 1021 hPa | - | - | - | - |
| 1788413637 | 12.78° C | 94% | 1021 hPa | - | - | - | - |
| 1788412738 | 12.78° C | 94% | 1021 hPa | - | - | - | - |
| 1788411838 | 12.78° C | 94% | 1021 hPa | - | - | - | - |
| 1788410936 | 11.11° C | 100% | 1020 hPa | - | - | - | - |
| 1788410037 | 11.11° C | 100% | 1020 hPa | - | - | - | - |
| 1788409136 | 11.11° C | 100% | 1020 hPa | - | - | - | - |
| 1788408237 | 11.11° C | 100% | 1020 hPa | - | - | - | - |
| 1788407337 | 11.11° C | 100% | 1020 hPa | - | - | - | - |
| 1788406437 | 11.11° C | 100% | 1020 hPa | - | - | - | - |
| 1788405537 | 11.11° C | 100% | 1020 hPa | - | - | - | - |
| 1788380337 | 15° C | 77% | 1020 hPa | - | - | - | - |
| 1788379453 | 15° C | 77% | 1020 hPa | - | - | - | - |
| 1788378536 | 17.22° C | 68% | 1020 hPa | - | - | - | - |
| 1788377636 | 17.22° C | 68% | 1020 hPa | - | - | - | - |
* Rain since midnight (hover to see other rain measurements)
** Current wind speed in m/s (hover to see current wind gust speed)